Time,TemperatureF,DewpointF,PressureIn,WindDirection,WindDirectionDegrees,WindSpeedMPH,WindSpeedGustMPH,Humidity,HourlyPrecipIn,Conditions,Clouds,dailyrainin,SoftwareType,DateUTC
2013-05-19 00:03:00,53.4,44.6,30.13,SSE,159,1.0,1.0,72,0.00,,,0.00,Wunderground v.1.15,2013-05-19 07:03:00,
2013-05-19 00:08:00,53.2,44.4,30.12,WNW,296,1.0,1.0,72,0.00,,,0.00,Wunderground v.1.15,2013-05-19 07:08:00,
2013-05-19 00:13:00,53.2,44.4,30.12,South,183,0.0,1.0,72,0.00,,,0.00,Wunderground v.1.15,2013-05-19 07:13:00,
2013-05-19 00:18:00,53.3,44.1,30.12,SSE,151,1.0,3.0,71,0.00,,,0.00,Wunderground v.1.15,2013-05-19 07:18:00,
2013-05-19 00:24:00,53.3,44.1,30.13,NE,50,1.0,2.0,71,0.00,,,0.00,Wunderground v.1.15,2013-05-19 07:24:00,
2013-05-19 00:29:00,53.5,44.0,30.12,NE,42,2.0,2.0,70,0.00,,,0.00,Wunderground v.1.15,2013-05-19 07:29:00,
2013-05-19 00:34:00,53.7,43.8,30.12,NE,42,1.0,5.0,69,0.00,,,0.00,Wunderground v.1.15,2013-05-19 07:34:00,
2013-05-19 00:39:00,53.9,43.6,30.12,North,5,1.0,5.0,68,0.00,,,0.00,Wunderground v.1.15,2013-05-19 07:39:00,
2013-05-19 00:44:00,54.0,43.7,30.12,NE,39,2.0,5.0,68,0.00,,,0.00,Wunderground v.1.15,2013-05-19 07:44:00,
2013-05-19 00:50:00,53.9,43.6,30.12,East,101,1.0,1.0,68,0.00,,,0.00,Wunderground v.1.15,2013-05-19 07:50:00,
2013-05-19 00:55:00,53.6,43.3,30.12,East,101,0.0,5.0,68,0.00,,,0.00,Wunderground v.1.15,2013-05-19 07:55:00,
2013-05-19 01:00:00,53.2,43.3,30.12,ENE,71,0.0,0.0,69,0.00,,,0.00,Wunderground v.1.15,2013-05-19 08:00:00,
2013-05-19 01:06:00,53.3,43.4,30.11,SE,138,0.0,0.0,69,0.00,,,0.00,Wunderground v.1.15,2013-05-19 08:06:00,
2013-05-19 01:11:00,53.2,43.3,30.11,North,355,0.0,0.0,69,0.00,,,0.00,Wunderground v.1.15,2013-05-19 08:11:00,
2013-05-19 01:16:00,53.3,43.4,30.11,North,355,0.0,0.0,69,0.00,,,0.00,Wunderground v.1.15,2013-05-19 08:16:00,
2013-05-19 01:21:00,53.2,43.3,30.11,North,355,0.0,0.0,69,0.00,,,0.00,Wunderground v.1.15,2013-05-19 08:21:00,
2013-05-19 01:26:00,53.1,43.2,30.11,ENE,58,0.0,0.0,69,0.00,,,0.00,Wunderground v.1.15,2013-05-19 08:26:00,
2013-05-19 01:31:00,52.8,42.9,30.11,ENE,63,0.0,3.0,69,0.00,,,0.00,Wunderground v.1.15,2013-05-19 08:31:00,
2013-05-19 01:36:00,52.9,43.0,30.11,ENE,63,0.0,3.0,69,0.00,,,0.00,Wunderground v.1.15,2013-05-19 08:36:00,
2013-05-19 01:41:00,53.2,43.3,30.11,NE,41,0.0,3.0,69,0.00,,,0.00,Wunderground v.1.15,2013-05-19 08:41:00,
2013-05-19 01:47:00,53.4,43.1,30.10,NE,41,1.0,3.0,68,0.00,,,0.00,Wunderground v.1.15,2013-05-19 08:47:00,
2013-05-19 01:52:00,53.4,43.1,30.10,NE,41,0.0,3.0,68,0.00,,,0.00,Wunderground v.1.15,2013-05-19 08:52:00,
2013-05-19 01:57:00,53.4,43.1,30.10,NE,36,0.0,3.0,68,0.00,,,0.00,Wunderground v.1.15,2013-05-19 08:57:00,
2013-05-19 02:02:00,53.6,43.3,30.10,NNW,342,1.0,2.0,68,0.00,,,0.00,Wunderground v.1.15,2013-05-19 09:02:00,
2013-05-19 02:07:00,53.7,43.0,30.11,NNW,348,2.0,3.0,67,0.00,,,0.00,Wunderground v.1.15,2013-05-19 09:07:00,
2013-05-19 02:13:00,53.7,43.4,30.11,North,355,2.0,3.0,68,0.00,,,0.00,Wunderground v.1.15,2013-05-19 09:13:00,
2013-05-19 02:18:00,53.7,43.4,30.11,North,355,3.0,4.0,68,0.00,,,0.00,Wunderground v.1.15,2013-05-19 09:18:00,
2013-05-19 02:23:00,53.7,43.0,30.11,North,351,3.0,4.0,67,0.00,,,0.00,Wunderground v.1.15,2013-05-19 09:23:00,
2013-05-19 02:28:00,53.5,43.2,30.11,North,355,3.0,4.0,68,0.00,,,0.00,Wunderground v.1.15,2013-05-19 09:28:00,
2013-05-19 02:33:00,53.6,43.3,30.11,NNW,346,3.0,5.0,68,0.00,,,0.00,Wunderground v.1.15,2013-05-19 09:33:00,
2013-05-19 02:39:00,53.6,43.3,30.10,NNE,17,3.0,5.0,68,0.00,,,0.00,Wunderground v.1.15,2013-05-19 09:39:00,
2013-05-19 02:44:00,53.6,43.3,30.10,North,5,3.0,3.0,68,0.00,,,0.00,Wunderground v.1.15,2013-05-19 09:44:00,
2013-05-19 02:49:00,53.6,43.3,30.10,North,5,3.0,3.0,68,0.00,,,0.00,Wunderground v.1.15,2013-05-19 09:49:00,
2013-05-19 02:54:00,53.5,43.2,30.10,NNE,15,3.0,4.0,68,0.00,,,0.00,Wunderground v.1.15,2013-05-19 09:54:00,
2013-05-19 02:59:00,53.6,42.9,30.10,North,5,3.0,4.0,67,0.00,,,0.00,Wunderground v.1.15,2013-05-19 09:59:00,
2013-05-19 03:05:00,53.5,43.2,30.10,NNW,347,3.0,4.0,68,0.00,,,0.00,Wunderground v.1.15,2013-05-19 10:05:00,
2013-05-19 03:10:00,53.7,43.0,30.10,North,355,4.0,5.0,67,0.00,,,0.00,Wunderground v.1.15,2013-05-19 10:10:00,
2013-05-19 03:15:00,53.9,43.2,30.10,NNE,21,4.0,5.0,67,0.00,,,0.00,Wunderground v.1.15,2013-05-19 10:15:00,
2013-05-19 03:20:00,54.0,42.9,30.10,North,355,4.0,5.0,66,0.00,,,0.00,Wunderground v.1.15,2013-05-19 10:20:00,
2013-05-19 03:25:00,54.2,43.1,30.10,North,360,4.0,5.0,66,0.00,,,0.00,Wunderground v.1.15,2013-05-19 10:25:00,
2013-05-19 03:31:00,54.1,43.0,30.10,North,350,4.0,6.0,66,0.00,,,0.00,Wunderground v.1.15,2013-05-19 10:31:00,
2013-05-19 03:36:00,53.9,42.8,30.10,North,360,4.0,7.0,66,0.00,,,0.00,Wunderground v.1.15,2013-05-19 10:36:00,
2013-05-19 03:41:00,53.8,42.7,30.10,NNW,339,5.0,8.0,66,0.00,,,0.00,Wunderground v.1.15,2013-05-19 10:41:00,
2013-05-19 03:46:00,54.0,42.9,30.10,NNE,19,5.0,8.0,66,0.00,,,0.00,Wunderground v.1.15,2013-05-19 10:46:00,
2013-05-19 03:51:00,53.7,43.0,30.10,NE,49,5.0,6.0,67,0.00,,,0.00,Wunderground v.1.15,2013-05-19 10:51:00,
2013-05-19 03:56:00,53.6,42.9,30.10,NNE,12,5.0,6.0,67,0.00,,,0.00,Wunderground v.1.15,2013-05-19 10:56:00,
2013-05-19 04:02:00,53.7,42.6,30.10,North,349,5.0,5.0,66,0.00,,,0.00,Wunderground v.1.15,2013-05-19 11:02:00,
2013-05-19 04:07:00,54.1,42.2,30.10,North,5,5.0,6.0,64,0.00,,,0.00,Wunderground v.1.15,2013-05-19 11:07:00,
2013-05-19 04:12:00,54.6,41.0,30.10,North,355,5.0,8.0,60,0.00,,,0.00,Wunderground v.1.15,2013-05-19 11:12:00,
2013-05-19 04:17:00,55.3,41.2,30.10,North,11,6.0,8.0,59,0.00,,,0.00,Wunderground v.1.15,2013-05-19 11:17:00,
2013-05-19 04:22:00,55.4,41.3,30.10,North,360,6.0,6.0,59,0.00,,,0.00,Wunderground v.1.15,2013-05-19 11:22:00,
2013-05-19 04:27:00,55.1,41.0,30.10,North,5,5.0,6.0,59,0.00,,,0.00,Wunderground v.1.15,2013-05-19 11:27:00,
2013-05-19 04:32:00,55.0,40.9,30.10,North,5,5.0,8.0,59,0.00,,,0.00,Wunderground v.1.15,2013-05-19 11:32:00,
2013-05-19 04:38:00,55.2,40.2,30.10,NNW,336,6.0,11.0,57,0.00,,,0.00,Wunderground v.1.15,2013-05-19 11:38:00,
2013-05-19 04:44:00,55.5,40.0,30.10,NNW,347,6.0,8.0,56,0.00,,,0.00,Wunderground v.1.15,2013-05-19 11:44:00,
2013-05-19 04:49:00,55.9,39.0,30.09,NNE,22,6.0,8.0,53,0.00,,,0.00,Wunderground v.1.15,2013-05-19 11:49:00,
2013-05-19 04:54:00,56.1,38.7,30.09,North,11,6.0,8.0,52,0.00,,,0.00,Wunderground v.1.15,2013-05-19 11:54:00,
2013-05-19 04:59:00,56.3,38.4,30.09,NNE,17,6.0,8.0,51,0.00,,,0.00,Wunderground v.1.15,2013-05-19 11:59:00,
2013-05-19 05:04:00,56.3,37.9,30.09,NNE,17,6.0,9.0,50,0.00,,,0.00,Wunderground v.1.15,2013-05-19 12:04:00,
2013-05-19 05:09:00,56.5,38.1,30.09,NNW,329,7.0,11.0,50,0.00,,,0.00,Wunderground v.1.15,2013-05-19 12:09:00,
2013-05-19 05:15:00,56.5,38.1,30.10,North,360,7.0,7.0,50,0.00,,,0.00,Wunderground v.1.15,2013-05-19 12:15:00,
2013-05-19 05:20:00,56.4,38.0,30.10,NNE,17,6.0,6.0,50,0.00,,,0.00,Wunderground v.1.15,2013-05-19 12:20:00,
2013-05-19 05:25:00,56.5,38.1,30.10,North,11,7.0,10.0,50,0.00,,,0.00,Wunderground v.1.15,2013-05-19 12:25:00,
2013-05-19 05:30:00,56.6,38.2,30.10,North,11,7.0,12.0,50,0.00,,,0.00,Wunderground v.1.15,2013-05-19 12:30:00,
2013-05-19 05:35:00,56.6,38.2,30.10,NNE,12,7.0,12.0,50,0.00,,,0.00,Wunderground v.1.15,2013-05-19 12:35:00,
2013-05-19 05:41:00,56.6,38.2,30.10,NNE,22,7.0,11.0,50,0.00,,,0.00,Wunderground v.1.15,2013-05-19 12:41:00,
2013-05-19 05:46:00,56.5,38.6,30.10,NNE,13,7.0,11.0,51,0.00,,,0.00,Wunderground v.1.15,2013-05-19 12:46:00,
2013-05-19 05:51:00,56.6,38.7,30.10,North,5,8.0,11.0,51,0.00,,,0.00,Wunderground v.1.15,2013-05-19 12:51:00,
2013-05-19 05:56:00,56.8,38.9,30.10,NNE,30,9.0,11.0,51,0.00,,,0.00,Wunderground v.1.15,2013-05-19 12:56:00,
2013-05-19 06:02:00,56.6,38.7,30.10,NNW,342,8.0,10.0,51,0.00,,,0.00,Wunderground v.1.15,2013-05-19 13:02:00,
2013-05-19 06:07:00,56.3,38.9,30.10,NNE,23,8.0,10.0,52,0.00,,,0.00,Wunderground v.1.15,2013-05-19 13:07:00,
2013-05-19 06:12:00,56.1,38.7,30.10,North,360,7.0,11.0,52,0.00,,,0.00,Wunderground v.1.15,2013-05-19 13:12:00,
2013-05-19 06:17:00,56.2,38.8,30.10,NNW,348,7.0,11.0,52,0.00,,,0.00,Wunderground v.1.15,2013-05-19 13:17:00,
2013-05-19 06:22:00,56.3,38.9,30.10,North,351,8.0,9.0,52,0.00,,,0.00,Wunderground v.1.15,2013-05-19 13:22:00,
2013-05-19 06:27:00,56.4,39.5,30.10,NNE,18,8.0,12.0,53,0.00,,,0.00,Wunderground v.1.15,2013-05-19 13:27:00,
2013-05-19 06:32:00,56.4,39.5,30.10,North,360,7.0,15.0,53,0.00,,,0.00,Wunderground v.1.15,2013-05-19 13:32:00,
2013-05-19 06:38:00,56.6,39.2,30.10,North,355,8.0,15.0,52,0.00,,,0.00,Wunderground v.1.15,2013-05-19 13:38:00,
2013-05-19 06:43:00,56.8,39.4,30.10,ENE,57,8.0,15.0,52,0.00,,,0.00,Wunderground v.1.15,2013-05-19 13:43:00,
2013-05-19 06:48:00,57.0,39.5,30.11,North,355,8.0,15.0,52,0.00,,,0.00,Wunderground v.1.15,2013-05-19 13:48:00,
2013-05-19 06:53:00,57.1,39.6,30.11,NNE,24,8.0,15.0,52,0.00,,,0.00,Wunderground v.1.15,2013-05-19 13:53:00,
2013-05-19 06:58:00,57.2,39.2,30.11,North,355,8.0,15.0,51,0.00,,,0.00,Wunderground v.1.15,2013-05-19 13:58:00,
2013-05-19 07:04:00,57.4,39.9,30.11,NNE,22,8.0,12.0,52,0.00,,,0.00,Wunderground v.1.15,2013-05-19 14:04:00,
2013-05-19 07:09:00,57.5,39.5,30.11,North,5,7.0,12.0,51,0.00,,,0.00,Wunderground v.1.15,2013-05-19 14:09:00,
2013-05-19 07:14:00,57.6,39.6,30.11,ENE,62,8.0,10.0,51,0.00,,,0.00,Wunderground v.1.15,2013-05-19 14:14:00,
2013-05-19 07:19:00,57.7,39.7,30.11,North,355,8.0,10.0,51,0.00,,,0.00,Wunderground v.1.15,2013-05-19 14:19:00,
2013-05-19 07:24:00,57.8,39.8,30.11,NNE,13,8.0,9.0,51,0.00,,,0.00,Wunderground v.1.15,2013-05-19 14:24:00,
2013-05-19 07:30:00,58.0,39.5,30.11,NNE,21,8.0,9.0,50,0.00,,,0.00,Wunderground v.1.15,2013-05-19 14:30:00,
2013-05-19 07:35:00,58.1,39.5,30.11,NW,315,8.0,14.0,50,0.00,,,0.00,Wunderground v.1.15,2013-05-19 14:35:00,
2013-05-19 07:40:00,58.4,39.8,30.11,NNE,29,8.0,8.0,50,0.00,,,0.00,Wunderground v.1.15,2013-05-19 14:40:00,
2013-05-19 07:45:00,58.7,39.6,30.11,NNE,12,7.0,14.0,49,0.00,,,0.00,Wunderground v.1.15,2013-05-19 14:45:00,
2013-05-19 07:50:00,58.9,39.8,30.11,North,355,8.0,14.0,49,0.00,,,0.00,Wunderground v.1.15,2013-05-19 14:50:00,
2013-05-19 07:56:00,58.9,39.8,30.11,North,355,9.0,14.0,49,0.00,,,0.00,Wunderground v.1.15,2013-05-19 14:56:00,
2013-05-19 08:01:00,59.3,40.1,30.11,NNE,32,8.0,8.0,49,0.00,,,0.00,Wunderground v.1.15,2013-05-19 15:01:00,
2013-05-19 08:06:00,59.4,39.1,30.11,NNE,29,9.0,15.0,47,0.00,,,0.00,Wunderground v.1.15,2013-05-19 15:06:00,
2013-05-19 08:11:00,59.6,39.9,30.11,NW,320,9.0,11.0,48,0.00,,,0.00,Wunderground v.1.15,2013-05-19 15:11:00,
2013-05-19 08:16:00,59.8,39.5,30.11,North,9,9.0,16.0,47,0.00,,,0.00,Wunderground v.1.15,2013-05-19 15:16:00,
2013-05-19 08:22:00,59.7,39.4,30.11,NNE,28,9.0,9.0,47,0.00,,,0.00,Wunderground v.1.15,2013-05-19 15:22:00,
2013-05-19 08:27:00,59.8,40.1,30.11,North,5,9.0,10.0,48,0.00,,,0.00,Wunderground v.1.15,2013-05-19 15:27:00,
2013-05-19 08:32:00,60.1,39.8,30.11,NNE,26,8.0,16.0,47,0.00,,,0.00,Wunderground v.1.15,2013-05-19 15:32:00,
2013-05-19 08:37:00,60.6,40.2,30.11,NNW,340,8.0,16.0,47,0.00,,,0.00,Wunderground v.1.15,2013-05-19 15:37:00,
2013-05-19 08:42:00,60.4,40.1,30.11,North,5,9.0,16.0,47,0.00,,,0.00,Wunderground v.1.15,2013-05-19 15:42:00,
2013-05-19 08:48:00,60.5,40.2,30.11,NNW,328,10.0,16.0,47,0.00,,,0.00,Wunderground v.1.15,2013-05-19 15:48:00,
2013-05-19 08:53:00,60.6,39.7,30.12,NNE,12,9.0,16.0,46,0.00,,,0.00,Wunderground v.1.15,2013-05-19 15:53:00,
2013-05-19 08:58:00,60.8,39.9,30.11,North,355,8.0,16.0,46,0.00,,,0.00,Wunderground v.1.15,2013-05-19 15:58:00,
2013-05-19 09:03:00,60.8,40.4,30.11,NNE,13,9.0,12.0,47,0.00,,,0.00,Wunderground v.1.15,2013-05-19 16:03:00,
2013-05-19 09:08:00,61.2,40.2,30.11,North,5,9.0,12.0,46,0.00,,,0.00,Wunderground v.1.15,2013-05-19 16:08:00,
2013-05-19 09:13:00,61.4,39.9,30.11,North,11,9.0,11.0,45,0.00,,,0.00,Wunderground v.1.15,2013-05-19 16:13:00,
2013-05-19 09:18:00,61.7,40.1,30.11,North,11,8.0,11.0,45,0.00,,,0.00,Wunderground v.1.15,2013-05-19 16:18:00,
2013-05-19 09:23:00,62.2,40.0,30.11,NNW,341,7.0,8.0,44,0.00,,,0.00,Wunderground v.1.15,2013-05-19 16:23:00,
2013-05-19 09:28:00,62.3,40.1,30.11,NNW,341,7.0,9.0,44,0.00,,,0.00,Wunderground v.1.15,2013-05-19 16:28:00,
2013-05-19 09:33:00,62.1,39.9,30.11,NNE,23,8.0,16.0,44,0.00,,,0.00,Wunderground v.1.15,2013-05-19 16:33:00,
2013-05-19 09:38:00,62.3,40.7,30.11,NNW,327,8.0,16.0,45,0.00,,,0.00,Wunderground v.1.15,2013-05-19 16:38:00,
2013-05-19 09:43:00,63.3,41.0,30.11,NNE,28,7.0,16.0,44,0.00,,,0.00,Wunderground v.1.15,2013-05-19 16:43:00,
2013-05-19 09:49:00,63.0,40.7,30.11,NNW,336,7.0,16.0,44,0.00,,,0.00,Wunderground v.1.15,2013-05-19 16:49:00,
2013-05-19 09:54:00,63.1,40.8,30.11,NNW,346,8.0,16.0,44,0.00,,,0.00,Wunderground v.1.15,2013-05-19 16:54:00,
2013-05-19 09:59:00,63.5,40.6,30.11,NNW,339,8.0,16.0,43,0.00,,,0.00,Wunderground v.1.15,2013-05-19 16:59:00,
2013-05-19 10:04:00,63.1,40.8,30.11,North,11,9.0,9.0,44,0.00,,,0.00,Wunderground v.1.15,2013-05-19 17:04:00,
2013-05-19 10:09:00,63.3,41.0,30.11,North,11,9.0,12.0,44,0.00,,,0.00,Wunderground v.1.15,2013-05-19 17:09:00,
2013-05-19 10:14:00,63.7,41.4,30.11,North,350,10.0,13.0,44,0.00,,,0.00,Wunderground v.1.15,2013-05-19 17:14:00,
2013-05-19 10:20:00,63.6,40.7,30.10,NNW,336,11.0,13.0,43,0.00,,,0.00,Wunderground v.1.15,2013-05-19 17:20:00,
2013-05-19 10:25:00,63.6,40.7,30.11,NNW,348,10.0,12.0,43,0.00,,,0.00,Wunderground v.1.15,2013-05-19 17:25:00,
2013-05-19 10:30:00,64.5,41.5,30.11,North,355,9.0,12.0,43,0.00,,,0.00,Wunderground v.1.15,2013-05-19 17:30:00,
2013-05-19 10:35:00,64.8,41.8,30.10,NNW,342,8.0,17.0,43,0.00,,,0.00,Wunderground v.1.15,2013-05-19 17:35:00,
2013-05-19 10:40:00,65.5,41.8,30.10,NNE,13,8.0,17.0,42,0.00,,,0.00,Wunderground v.1.15,2013-05-19 17:40:00,
2013-05-19 10:46:00,65.9,41.5,30.10,North,360,9.0,17.0,41,0.00,,,0.00,Wunderground v.1.15,2013-05-19 17:46:00,
2013-05-19 10:51:00,65.8,41.4,30.10,NNE,13,10.0,10.0,41,0.00,,,0.00,Wunderground v.1.15,2013-05-19 17:51:00,
2013-05-19 10:56:00,65.8,42.1,30.10,NNW,331,9.0,17.0,42,0.00,,,0.00,Wunderground v.1.15,2013-05-19 17:56:00,
2013-05-19 11:02:00,66.8,41.7,30.10,North,355,9.0,15.0,40,0.00,,,0.00,Wunderground v.1.15,2013-05-19 18:02:00,
2013-05-19 11:08:00,66.6,41.5,30.10,NNE,25,9.0,15.0,40,0.00,,,0.00,Wunderground v.1.15,2013-05-19 18:08:00,
2013-05-19 11:13:00,67.2,42.0,30.10,NNW,331,8.0,9.0,40,0.00,,,0.00,Wunderground v.1.15,2013-05-19 18:13:00,
2013-05-19 11:18:00,67.7,41.2,30.10,NW,312,7.0,12.0,38,0.00,,,0.00,Wunderground v.1.15,2013-05-19 18:18:00,
2013-05-19 11:23:00,67.3,41.5,30.10,North,11,8.0,8.0,39,0.00,,,0.00,Wunderground v.1.15,2013-05-19 18:23:00,
2013-05-19 11:28:00,67.9,41.3,30.10,North,355,9.0,14.0,38,0.00,,,0.00,Wunderground v.1.15,2013-05-19 18:28:00,
2013-05-19 11:34:00,67.4,41.6,30.10,NNW,331,11.0,16.0,39,0.00,,,0.00,Wunderground v.1.15,2013-05-19 18:34:00,
2013-05-19 11:39:00,68.3,41.7,30.10,NW,325,10.0,16.0,38,0.00,,,0.00,Wunderground v.1.15,2013-05-19 18:39:00,
2013-05-19 11:44:00,68.3,41.7,30.10,NNW,347,9.0,16.0,38,0.00,,,0.00,Wunderground v.1.15,2013-05-19 18:44:00,
2013-05-19 11:49:00,68.7,41.4,30.10,NW,326,8.0,16.0,37,0.00,,,0.00,Wunderground v.1.15,2013-05-19 18:49:00,
2013-05-19 11:54:00,68.7,42.1,30.10,North,355,9.0,16.0,38,0.00,,,0.00,Wunderground v.1.15,2013-05-19 18:54:00,
2013-05-19 12:00:00,69.5,42.1,30.10,NW,317,8.0,8.0,37,0.00,,,0.00,Wunderground v.1.15,2013-05-19 19:00:00,
2013-05-19 12:06:00,69.5,41.4,30.09,NW,311,8.0,14.0,36,0.00,,,0.00,Wunderground v.1.15,2013-05-19 19:06:00,
2013-05-19 12:11:00,69.4,42.0,30.09,NNW,346,10.0,10.0,37,0.00,,,0.00,Wunderground v.1.15,2013-05-19 19:11:00,
2013-05-19 12:17:00,69.3,41.2,30.09,NW,306,10.0,13.0,36,0.00,,,0.00,Wunderground v.1.15,2013-05-19 19:17:00,
2013-05-19 12:22:00,69.6,41.5,30.09,NNW,332,9.0,14.0,36,0.00,,,0.00,Wunderground v.1.15,2013-05-19 19:22:00,
2013-05-19 12:27:00,70.2,42.0,30.09,NNW,327,10.0,14.0,36,0.00,,,0.00,Wunderground v.1.15,2013-05-19 19:27:00,
2013-05-19 12:32:00,70.6,41.6,30.09,NNW,329,10.0,21.0,35,0.00,,,0.00,Wunderground v.1.15,2013-05-19 19:32:00,
2013-05-19 12:37:00,71.3,40.7,30.09,NW,323,9.0,21.0,33,0.00,,,0.00,Wunderground v.1.15,2013-05-19 19:37:00,
2013-05-19 12:43:00,71.0,40.4,30.09,NNW,341,10.0,21.0,33,0.00,,,0.00,Wunderground v.1.15,2013-05-19 19:43:00,
2013-05-19 12:48:00,70.8,40.3,30.08,NW,325,10.0,21.0,33,0.00,,,0.00,Wunderground v.1.15,2013-05-19 19:48:00,
2013-05-19 12:53:00,71.0,40.4,30.08,NNW,346,9.0,21.0,33,0.00,,,0.00,Wunderground v.1.15,2013-05-19 19:53:00,
2013-05-19 12:58:00,71.4,40.8,30.08,NNW,340,9.0,21.0,33,0.00,,,0.00,Wunderground v.1.15,2013-05-19 19:58:00,
2013-05-19 13:03:00,71.9,40.4,30.08,NW,319,10.0,16.0,32,0.00,,,0.00,Wunderground v.1.15,2013-05-19 20:03:00,
2013-05-19 13:09:00,71.8,40.3,30.08,NW,311,11.0,16.0,32,0.00,,,0.00,Wunderground v.1.15,2013-05-19 20:09:00,
2013-05-19 13:14:00,71.9,40.4,30.07,NNW,335,11.0,13.0,32,0.00,,,0.00,Wunderground v.1.15,2013-05-19 20:14:00,
2013-05-19 13:19:00,72.6,41.0,30.07,NW,325,10.0,13.0,32,0.00,,,0.00,Wunderground v.1.15,2013-05-19 20:19:00,
2013-05-19 13:24:00,72.8,40.4,30.07,North,355,10.0,13.0,31,0.00,,,0.00,Wunderground v.1.15,2013-05-19 20:24:00,
2013-05-19 13:29:00,72.5,39.3,30.07,NNW,328,11.0,15.0,30,0.00,,,0.00,Wunderground v.1.15,2013-05-19 20:29:00,
2013-05-19 13:35:00,73.4,39.2,30.07,NNW,342,10.0,18.0,29,0.00,,,0.00,Wunderground v.1.15,2013-05-19 20:35:00,
2013-05-19 13:40:00,73.6,39.4,30.07,NNW,337,9.0,18.0,29,0.00,,,0.00,Wunderground v.1.15,2013-05-19 20:40:00,
2013-05-19 13:45:00,72.9,39.6,30.07,NE,44,10.0,18.0,30,0.00,,,0.00,Wunderground v.1.15,2013-05-19 20:45:00,
2013-05-19 13:50:00,72.8,40.4,30.07,NNW,333,10.0,18.0,31,0.00,,,0.00,Wunderground v.1.15,2013-05-19 20:50:00,
2013-05-19 13:55:00,73.4,39.2,30.06,NNW,336,11.0,18.0,29,0.00,,,0.00,Wunderground v.1.15,2013-05-19 20:55:00,
2013-05-19 14:00:00,74.0,39.7,30.06,WNW,301,8.0,8.0,29,0.00,,,0.00,Wunderground v.1.15,2013-05-19 21:00:00,
2013-05-19 14:06:00,73.7,41.2,30.06,NW,310,8.0,11.0,31,0.00,,,0.00,Wunderground v.1.15,2013-05-19 21:06:00,
2013-05-19 14:11:00,74.5,39.2,30.06,NW,325,9.0,10.0,28,0.00,,,0.00,Wunderground v.1.15,2013-05-19 21:11:00,
2013-05-19 14:16:00,74.1,39.8,30.06,West,280,9.0,14.0,29,0.00,,,0.00,Wunderground v.1.15,2013-05-19 21:16:00,
2013-05-19 14:21:00,73.6,41.1,30.06,WNW,299,9.0,13.0,31,0.00,,,0.00,Wunderground v.1.15,2013-05-19 21:21:00,
2013-05-19 14:26:00,74.1,41.5,30.06,North,355,10.0,13.0,31,0.00,,,0.00,Wunderground v.1.15,2013-05-19 21:26:00,
2013-05-19 14:31:00,73.9,42.2,30.06,NNW,338,10.0,19.0,32,0.00,,,0.00,Wunderground v.1.15,2013-05-19 21:31:00,
2013-05-19 14:36:00,74.8,42.1,30.05,North,351,8.0,19.0,31,0.00,,,0.00,Wunderground v.1.15,2013-05-19 21:36:00,
2013-05-19 14:41:00,74.4,39.2,30.05,NNE,22,8.0,19.0,28,0.00,,,0.00,Wunderground v.1.15,2013-05-19 21:41:00,
2013-05-19 14:46:00,75.1,40.7,30.05,NW,315,8.0,19.0,29,0.00,,,0.00,Wunderground v.1.15,2013-05-19 21:46:00,
2013-05-19 14:51:00,74.9,43.0,30.05,NNW,335,8.0,19.0,32,0.00,,,0.00,Wunderground v.1.15,2013-05-19 21:51:00,
2013-05-19 14:56:00,75.0,42.3,30.05,NNW,340,9.0,19.0,31,0.00,,,0.00,Wunderground v.1.15,2013-05-19 21:56:00,
2013-05-19 15:02:00,75.5,45.2,30.04,WNW,288,8.0,11.0,34,0.00,,,0.00,Wunderground v.1.15,2013-05-19 22:02:00,
2013-05-19 15:07:00,74.8,45.3,30.05,NNW,329,7.0,12.0,35,0.00,,,0.00,Wunderground v.1.15,2013-05-19 22:07:00,
2013-05-19 15:12:00,74.4,45.7,30.04,WNW,300,8.0,11.0,36,0.00,,,0.00,Wunderground v.1.15,2013-05-19 22:12:00,
2013-05-19 15:17:00,74.5,45.8,30.04,West,263,8.0,11.0,36,0.00,,,0.00,Wunderground v.1.15,2013-05-19 22:17:00,
2013-05-19 15:22:00,75.6,46.8,30.04,West,279,7.0,10.0,36,0.00,,,0.00,Wunderground v.1.15,2013-05-19 22:22:00,
2013-05-19 15:28:00,75.3,46.5,30.04,NW,313,6.0,10.0,36,0.00,,,0.00,Wunderground v.1.15,2013-05-19 22:28:00,
2013-05-19 15:33:00,75.1,46.3,30.04,WNW,297,7.0,18.0,36,0.00,,,0.00,Wunderground v.1.15,2013-05-19 22:33:00,
2013-05-19 15:38:00,73.8,45.9,30.04,West,270,8.0,18.0,37,0.00,,,0.00,Wunderground v.1.15,2013-05-19 22:38:00,
2013-05-19 15:43:00,75.1,46.3,30.04,WNW,294,7.0,18.0,36,0.00,,,0.00,Wunderground v.1.15,2013-05-19 22:43:00,
2013-05-19 15:48:00,73.9,45.3,30.04,West,275,7.0,18.0,36,0.00,,,0.00,Wunderground v.1.15,2013-05-19 22:48:00,
2013-05-19 15:54:00,75.0,45.5,30.04,WNW,296,6.0,18.0,35,0.00,,,0.00,Wunderground v.1.15,2013-05-19 22:54:00,
2013-05-19 15:59:00,76.9,46.4,30.04,WNW,299,3.0,18.0,34,0.00,,,0.00,Wunderground v.1.15,2013-05-19 22:59:00,
2013-05-19 16:04:00,78.6,46.3,30.03,WNW,291,1.0,3.0,32,0.00,,,0.00,Wunderground v.1.15,2013-05-19 23:04:00,
2013-05-19 16:09:00,77.1,45.0,30.03,NW,306,3.0,6.0,32,0.00,,,0.00,Wunderground v.1.15,2013-05-19 23:09:00,
2013-05-19 16:14:00,73.9,45.3,30.03,SSW,206,6.0,10.0,36,0.00,,,0.00,Wunderground v.1.15,2013-05-19 23:14:00,
2013-05-19 16:20:00,74.6,45.1,30.03,WNW,290,6.0,6.0,35,0.00,,,0.00,Wunderground v.1.15,2013-05-19 23:20:00,
2013-05-19 16:25:00,73.9,45.3,30.03,NW,311,6.0,9.0,36,0.00,,,0.00,Wunderground v.1.15,2013-05-19 23:25:00,
2013-05-19 16:30:00,73.0,45.2,30.03,NW,311,7.0,7.0,37,0.00,,,0.00,Wunderground v.1.15,2013-05-19 23:30:00,
2013-05-19 16:35:00,72.6,45.5,30.03,NW,309,8.0,16.0,38,0.00,,,0.00,Wunderground v.1.15,2013-05-19 23:35:00,
2013-05-19 16:40:00,72.3,45.3,30.02,NW,312,7.0,7.0,38,0.00,,,0.00,Wunderground v.1.15,2013-05-19 23:40:00,
2013-05-19 16:46:00,73.8,45.2,30.02,SW,224,5.0,16.0,36,0.00,,,0.00,Wunderground v.1.15,2013-05-19 23:46:00,
2013-05-19 16:51:00,74.4,45.0,30.02,WNW,297,4.0,16.0,35,0.00,,,0.00,Wunderground v.1.15,2013-05-19 23:51:00,
2013-05-19 16:56:00,74.5,44.3,30.02,West,269,4.0,16.0,34,0.00,,,0.00,Wunderground v.1.15,2013-05-19 23:56:00,
2013-05-19 17:01:00,74.1,43.9,30.01,WNW,295,4.0,10.0,34,0.00,,,0.00,Wunderground v.1.15,2013-05-20 00:01:00,
2013-05-19 17:06:00,74.0,44.6,30.01,West,278,5.0,11.0,35,0.00,,,0.00,Wunderground v.1.15,2013-05-20 00:06:00,
2013-05-19 17:12:00,72.2,44.5,30.01,West,273,7.0,11.0,37,0.00,,,0.00,Wunderground v.1.15,2013-05-20 00:12:00,
2013-05-19 17:17:00,72.2,45.2,30.01,West,268,7.0,11.0,38,0.00,,,0.00,Wunderground v.1.15,2013-05-20 00:17:00,
2013-05-19 17:22:00,71.8,44.8,30.02,NW,316,6.0,7.0,38,0.00,,,0.00,Wunderground v.1.15,2013-05-20 00:22:00,
2013-05-19 17:27:00,72.1,45.1,30.01,WNW,289,6.0,9.0,38,0.00,,,0.00,Wunderground v.1.15,2013-05-20 00:27:00,
2013-05-19 17:32:00,72.8,44.3,30.01,WNW,282,4.0,13.0,36,0.00,,,0.00,Wunderground v.1.15,2013-05-20 00:32:00,
2013-05-19 17:38:00,72.9,44.4,30.01,NW,316,3.0,13.0,36,0.00,,,0.00,Wunderground v.1.15,2013-05-20 00:38:00,
2013-05-19 17:43:00,73.7,44.3,30.01,West,273,2.0,13.0,35,0.00,,,0.00,Wunderground v.1.15,2013-05-20 00:43:00,
2013-05-19 17:48:00,73.7,44.3,30.01,WNW,298,2.0,13.0,35,0.00,,,0.00,Wunderground v.1.15,2013-05-20 00:48:00,
2013-05-19 17:53:00,73.6,43.5,30.01,SSW,200,2.0,13.0,34,0.00,,,0.00,Wunderground v.1.15,2013-05-20 00:53:00,
2013-05-19 17:58:00,72.7,41.9,30.01,WNW,303,3.0,13.0,33,0.00,,,0.00,Wunderground v.1.15,2013-05-20 00:58:00,
2013-05-19 18:04:00,71.1,42.0,30.01,WNW,293,5.0,7.0,35,0.00,,,0.00,Wunderground v.1.15,2013-05-20 01:04:00,
2013-05-19 18:09:00,71.1,42.0,30.01,West,269,5.0,7.0,35,0.00,,,0.00,Wunderground v.1.15,2013-05-20 01:09:00,
2013-05-19 18:14:00,71.5,42.4,30.01,West,277,3.0,5.0,35,0.00,,,0.00,Wunderground v.1.15,2013-05-20 01:14:00,
2013-05-19 18:19:00,71.3,42.2,30.01,WSW,249,3.0,6.0,35,0.00,,,0.00,Wunderground v.1.15,2013-05-20 01:19:00,
2013-05-19 18:24:00,71.7,42.6,30.01,NW,326,2.0,3.0,35,0.00,,,0.00,Wunderground v.1.15,2013-05-20 01:24:00,
2013-05-19 18:29:00,71.5,42.4,30.00,NW,309,2.0,4.0,35,0.00,,,0.00,Wunderground v.1.15,2013-05-20 01:29:00,
2013-05-19 18:34:00,71.1,42.0,30.00,NW,313,3.0,9.0,35,0.00,,,0.00,Wunderground v.1.15,2013-05-20 01:34:00,
2013-05-19 18:39:00,71.1,42.0,30.00,NW,312,2.0,9.0,35,0.00,,,0.00,Wunderground v.1.15,2013-05-20 01:39:00,
2013-05-19 18:44:00,71.2,42.9,30.00,WNW,296,2.0,9.0,36,0.00,,,0.00,Wunderground v.1.15,2013-05-20 01:44:00,
2013-05-19 18:49:00,70.3,42.1,30.00,WNW,285,3.0,9.0,36,0.00,,,0.00,Wunderground v.1.15,2013-05-20 01:49:00,
2013-05-19 18:54:00,69.6,42.2,30.00,WNW,290,3.0,9.0,37,0.00,,,0.00,Wunderground v.1.15,2013-05-20 01:54:00,
2013-05-19 18:59:00,70.0,42.5,30.00,NW,304,2.0,9.0,37,0.00,,,0.00,Wunderground v.1.15,2013-05-20 01:59:00,
2013-05-19 19:05:00,70.3,42.8,30.00,NW,306,2.0,3.0,37,0.00,,,0.00,Wunderground v.1.15,2013-05-20 02:05:00,
2013-05-19 19:10:00,70.4,42.9,30.00,NW,306,1.0,2.0,37,0.00,,,0.00,Wunderground v.1.15,2013-05-20 02:10:00,
2013-05-19 19:15:00,70.3,42.1,30.00,NNW,337,2.0,4.0,36,0.00,,,0.00,Wunderground v.1.15,2013-05-20 02:15:00,
2013-05-19 19:20:00,70.3,42.1,30.00,NW,320,3.0,3.0,36,0.00,,,0.00,Wunderground v.1.15,2013-05-20 02:20:00,
2013-05-19 19:25:00,70.1,41.9,30.00,NNW,336,3.0,3.0,36,0.00,,,0.00,Wunderground v.1.15,2013-05-20 02:25:00,
2013-05-19 19:30:00,69.6,41.5,30.00,NNW,336,3.0,3.0,36,0.00,,,0.00,Wunderground v.1.15,2013-05-20 02:30:00,
2013-05-19 19:35:00,69.1,41.7,30.01,NNW,334,3.0,6.0,37,0.00,,,0.00,Wunderground v.1.15,2013-05-20 02:35:00,
2013-05-19 19:40:00,68.8,41.5,30.01,North,355,3.0,6.0,37,0.00,,,0.00,Wunderground v.1.15,2013-05-20 02:40:00,
2013-05-19 19:45:00,68.6,41.3,30.01,NNW,331,3.0,6.0,37,0.00,,,0.00,Wunderground v.1.15,2013-05-20 02:45:00,
2013-05-19 19:50:00,68.2,40.9,30.01,North,355,3.0,6.0,37,0.00,,,0.00,Wunderground v.1.15,2013-05-20 02:50:00,
2013-05-19 19:55:00,68.2,40.9,30.01,North,355,4.0,6.0,37,0.00,,,0.00,Wunderground v.1.15,2013-05-20 02:55:00,
2013-05-19 20:00:00,67.9,40.7,30.01,North,355,5.0,5.0,37,0.00,,,0.00,Wunderground v.1.15,2013-05-20 03:00:00,
2013-05-19 20:06:00,67.4,40.9,30.01,North,360,5.0,5.0,38,0.00,,,0.00,Wunderground v.1.15,2013-05-20 03:06:00,
2013-05-19 20:11:00,67.1,40.6,30.00,North,355,5.0,5.0,38,0.00,,,0.00,Wunderground v.1.15,2013-05-20 03:11:00,
2013-05-19 20:16:00,66.8,41.0,30.00,North,355,5.0,5.0,39,0.00,,,0.00,Wunderground v.1.15,2013-05-20 03:16:00,
2013-05-19 20:21:00,66.6,41.5,30.01,NNW,346,5.0,5.0,40,0.00,,,0.00,Wunderground v.1.15,2013-05-20 03:21:00,
2013-05-19 20:27:00,65.9,41.5,30.01,NNW,344,5.0,6.0,41,0.00,,,0.00,Wunderground v.1.15,2013-05-20 03:27:00,
2013-05-19 20:32:00,65.5,41.2,30.01,NNW,331,5.0,7.0,41,0.00,,,0.00,Wunderground v.1.15,2013-05-20 03:32:00,
2013-05-19 20:37:00,65.1,40.8,30.01,NNW,333,5.0,7.0,41,0.00,,,0.00,Wunderground v.1.15,2013-05-20 03:37:00,
2013-05-19 20:42:00,64.7,40.4,30.01,North,355,5.0,7.0,41,0.00,,,0.00,Wunderground v.1.15,2013-05-20 03:42:00,
2013-05-19 20:47:00,64.7,41.1,30.01,NNW,341,5.0,7.0,42,0.00,,,0.00,Wunderground v.1.15,2013-05-20 03:47:00,
2013-05-19 20:53:00,64.7,41.1,30.01,North,360,5.0,7.0,42,0.00,,,0.00,Wunderground v.1.15,2013-05-20 03:53:00,
2013-05-19 20:58:00,64.7,41.1,30.01,North,355,5.0,7.0,42,0.00,,,0.00,Wunderground v.1.15,2013-05-20 03:58:00,
2013-05-19 21:01:00,64.8,41.2,30.01,North,5,5.0,5.0,42,0.00,,,0.00,Wunderground v.1.15,2013-05-20 04:01:00,
2013-05-19 21:02:00,64.7,41.1,30.01,NNW,345,5.0,5.0,42,0.00,,,0.00,Wunderground v.1.15,2013-05-20 04:02:00,
2013-05-19 21:03:00,64.8,41.2,30.01,NNW,340,5.0,5.0,42,0.00,,,0.00,Wunderground v.1.15,2013-05-20 04:03:00,
2013-05-19 21:07:00,64.6,41.0,30.01,NNW,348,5.0,5.0,42,0.00,,,0.00,Wunderground v.1.15,2013-05-20 04:07:00,
2013-05-19 21:09:00,64.6,41.0,30.01,NNW,347,5.0,5.0,42,0.00,,,0.00,Wunderground v.1.15,2013-05-20 04:09:00,
2013-05-19 21:15:00,64.4,40.8,30.01,North,355,4.0,5.0,42,0.00,,,0.00,Wunderground v.1.15,2013-05-20 04:15:00,
2013-05-19 21:20:00,64.3,40.7,30.01,North,355,4.0,5.0,42,0.00,,,0.00,Wunderground v.1.15,2013-05-20 04:20:00,
2013-05-19 21:25:00,64.4,40.2,30.01,North,350,4.0,5.0,41,0.00,,,0.00,Wunderground v.1.15,2013-05-20 04:25:00,
2013-05-19 21:30:00,64.3,40.1,30.02,North,355,4.0,4.0,41,0.00,,,0.00,Wunderground v.1.15,2013-05-20 04:30:00,
2013-05-19 21:35:00,64.2,40.0,30.02,North,355,4.0,7.0,41,0.00,,,0.00,Wunderground v.1.15,2013-05-20 04:35:00,
2013-05-19 21:41:00,64.1,39.9,30.02,North,355,4.0,7.0,41,0.00,,,0.00,Wunderground v.1.15,2013-05-20 04:41:00,
2013-05-19 21:46:00,63.9,39.7,30.02,NNW,348,4.0,7.0,41,0.00,,,0.00,Wunderground v.1.15,2013-05-20 04:46:00,
2013-05-19 21:51:00,64.1,39.9,30.02,North,350,3.0,7.0,41,0.00,,,0.00,Wunderground v.1.15,2013-05-20 04:51:00,
2013-05-19 21:56:00,64.1,39.3,30.02,North,355,3.0,7.0,40,0.00,,,0.00,Wunderground v.1.15,2013-05-20 04:56:00,
2013-05-19 22:01:00,64.1,39.3,30.02,North,11,4.0,4.0,40,0.00,,,0.00,Wunderground v.1.15,2013-05-20 05:01:00,
2013-05-19 22:07:00,64.1,39.9,30.02,North,5,3.0,4.0,41,0.00,,,0.00,Wunderground v.1.15,2013-05-20 05:07:00,
2013-05-19 22:12:00,64.1,39.9,30.02,NNE,19,3.0,4.0,41,0.00,,,0.00,Wunderground v.1.15,2013-05-20 05:12:00,
2013-05-19 22:17:00,64.1,39.3,30.02,North,5,3.0,4.0,40,0.00,,,0.00,Wunderground v.1.15,2013-05-20 05:17:00,
2013-05-19 22:22:00,64.2,39.4,30.02,NNE,15,3.0,4.0,40,0.00,,,0.00,Wunderground v.1.15,2013-05-20 05:22:00,
2013-05-19 22:27:00,64.2,39.4,30.02,NNE,20,3.0,4.0,40,0.00,,,0.00,Wunderground v.1.15,2013-05-20 05:27:00,
2013-05-19 22:33:00,64.1,39.9,30.02,North,5,3.0,6.0,41,0.00,,,0.00,Wunderground v.1.15,2013-05-20 05:33:00,
2013-05-19 22:38:00,64.1,39.9,30.02,NNE,19,3.0,6.0,41,0.00,,,0.00,Wunderground v.1.15,2013-05-20 05:38:00,
2013-05-19 22:43:00,64.1,39.9,30.03,North,355,4.0,6.0,41,0.00,,,0.00,Wunderground v.1.15,2013-05-20 05:43:00,
2013-05-19 22:48:00,64.1,39.9,30.02,North,351,4.0,6.0,41,0.00,,,0.00,Wunderground v.1.15,2013-05-20 05:48:00,
2013-05-19 22:53:00,64.3,39.4,30.02,North,355,4.0,6.0,40,0.00,,,0.00,Wunderground v.1.15,2013-05-20 05:53:00,
2013-05-19 22:59:00,64.6,39.1,30.02,NNE,17,4.0,6.0,39,0.00,,,0.00,Wunderground v.1.15,2013-05-20 05:59:00,
2013-05-19 23:04:00,64.3,38.8,30.02,NNE,22,4.0,5.0,39,0.00,,,0.00,Wunderground v.1.15,2013-05-20 06:04:00,
2013-05-19 23:09:00,64.6,38.4,30.02,North,9,4.0,6.0,38,0.00,,,0.00,Wunderground v.1.15,2013-05-20 06:09:00,
2013-05-19 23:14:00,64.9,38.0,30.02,North,355,4.0,5.0,37,0.00,,,0.00,Wunderground v.1.15,2013-05-20 06:14:00,
2013-05-19 23:19:00,64.8,35.0,30.02,North,355,4.0,5.0,33,0.00,,,0.00,Wunderground v.1.15,2013-05-20 06:19:00,
2013-05-19 23:25:00,65.2,34.6,30.02,NE,37,4.0,5.0,32,0.00,,,0.00,Wunderground v.1.15,2013-05-20 06:25:00,
2013-05-19 23:30:00,65.5,33.2,30.01,North,355,4.0,4.0,30,0.00,,,0.00,Wunderground v.1.15,2013-05-20 06:30:00,
2013-05-19 23:36:00,65.7,33.4,30.01,North,5,4.0,6.0,30,0.00,,,0.00,Wunderground v.1.15,2013-05-20 06:36:00,
2013-05-19 23:41:00,65.6,33.3,30.01,North,5,4.0,6.0,30,0.00,,,0.00,Wunderground v.1.15,2013-05-20 06:41:00,
2013-05-19 23:46:00,65.4,34.0,30.01,North,5,3.0,6.0,31,0.00,,,0.00,Wunderground v.1.15,2013-05-20 06:46:00,
2013-05-19 23:51:00,65.5,34.0,30.01,North,360,3.0,6.0,31,0.00,,,0.00,Wunderground v.1.15,2013-05-20 06:51:00,
2013-05-19 23:56:00,65.7,34.2,30.01,NNE,19,4.0,6.0,31,0.00,,,0.00,Wunderground v.1.15,2013-05-20 06:56:00,